createdAt,value
2018-12-14T00:00:11.995Z,15.23
2018-12-14T00:02:39.674Z,15.13
2018-12-14T00:05:07.317Z,14.67
2018-12-14T00:07:34.841Z,14.60
2018-12-14T00:10:03.026Z,14.60
2018-12-14T00:12:30.542Z,13.90
2018-12-14T00:14:58.100Z,14.43
2018-12-14T00:17:25.879Z,14.07
2018-12-14T00:19:53.616Z,13.90
2018-12-14T00:22:21.508Z,15.07
2018-12-14T00:24:49.057Z,13.87
2018-12-14T00:27:17.069Z,13.43
2018-12-14T00:29:44.894Z,13.80
2018-12-14T00:32:13.136Z,12.97
2018-12-14T00:34:40.701Z,14.87
2018-12-14T00:37:08.312Z,13.20
2018-12-14T00:39:35.892Z,11.97
2018-12-14T00:42:03.435Z,13.50
2018-12-14T00:44:30.954Z,14.00
2018-12-14T00:46:58.530Z,14.77
2018-12-14T00:49:26.051Z,13.90
2018-12-14T00:51:53.602Z,14.47
2018-12-14T00:54:21.420Z,12.93
2018-12-14T00:56:48.944Z,13.17
2018-12-14T00:59:16.502Z,12.90
2018-12-14T01:01:44.508Z,14.37
2018-12-14T01:04:12.064Z,13.67
2018-12-14T01:06:39.623Z,13.37
2018-12-14T01:09:07.216Z,13.03
2018-12-14T01:11:34.781Z,13.00
2018-12-14T01:14:02.601Z,13.57
2018-12-14T01:16:30.128Z,14.53
2018-12-14T01:18:57.760Z,14.27
2018-12-14T01:21:25.293Z,13.63
2018-12-14T01:23:52.852Z,14.97
2018-12-14T01:26:20.414Z,14.97
2018-12-14T01:28:47.972Z,13.73
2018-12-14T01:31:15.507Z,13.60
2018-12-14T01:33:43.198Z,13.83
2018-12-14T01:36:10.714Z,13.97
2018-12-14T01:38:38.347Z,14.03
2018-12-14T01:41:05.911Z,13.53
2018-12-14T01:43:33.432Z,13.73
2018-12-14T01:46:01.102Z,14.40
2018-12-14T01:48:28.613Z,14.07
2018-12-14T01:50:56.455Z,13.87
2018-12-14T01:53:24.798Z,13.20
2018-12-14T01:55:52.387Z,13.40
2018-12-14T01:58:19.929Z,14.07
2018-12-14T02:00:47.658Z,12.97
2018-12-14T02:03:15.231Z,13.07
2018-12-14T02:05:42.877Z,13.77
2018-12-14T02:08:10.400Z,13.77
2018-12-14T02:10:37.935Z,13.23
2018-12-14T02:13:05.520Z,13.57
2018-12-14T02:15:33.044Z,13.07
2018-12-14T02:18:00.609Z,13.30
2018-12-14T02:20:28.137Z,12.40
2018-12-14T02:22:56.061Z,12.40
2018-12-14T02:25:23.652Z,12.93
2018-12-14T02:27:51.262Z,13.57
2018-12-14T02:30:30.732Z,12.73
2018-12-14T02:32:58.259Z,12.23
2018-12-14T02:35:25.824Z,14.37
2018-12-14T02:37:53.753Z,13.43
2018-12-14T02:40:21.718Z,12.93
2018-12-14T02:42:49.247Z,13.77
2018-12-14T02:45:17.432Z,14.30
2018-12-14T02:47:45.001Z,13.87
2018-12-14T02:50:12.660Z,12.63
2018-12-14T02:52:40.240Z,13.03
2018-12-14T02:55:07.913Z,12.53
2018-12-14T02:57:35.468Z,13.27
2018-12-14T03:00:05.868Z,12.30
2018-12-14T03:02:33.422Z,12.10
2018-12-14T03:05:00.947Z,12.13
2018-12-14T03:07:28.686Z,11.20
2018-12-14T03:09:56.215Z,13.07
2018-12-14T03:12:26.811Z,11.57
2018-12-14T03:14:53.616Z,12.40
2018-12-14T03:17:21.938Z,12.13
2018-12-14T03:19:50.108Z,11.73
2018-12-14T03:22:18.125Z,13.27
2018-12-14T03:24:45.674Z,12.03
2018-12-14T03:27:13.231Z,11.60
2018-12-14T03:29:40.797Z,12.73
2018-12-14T03:32:08.588Z,12.30
2018-12-14T03:34:36.175Z,13.00
2018-12-14T03:37:03.765Z,12.60
2018-12-14T03:39:31.294Z,11.23
2018-12-14T03:41:58.829Z,11.37
2018-12-14T03:44:26.806Z,11.87
2018-12-14T03:46:54.380Z,11.50
2018-12-14T03:49:21.993Z,11.50
2018-12-14T03:51:49.517Z,12.03
2018-12-14T03:54:17.139Z,11.57
2018-12-14T03:56:44.679Z,11.47
2018-12-14T03:59:12.264Z,10.93
2018-12-14T04:01:39.795Z,11.57
2018-12-14T04:04:07.546Z,11.27
2018-12-14T04:06:35.068Z,11.50
2018-12-14T04:09:02.737Z,11.50
2018-12-14T04:11:30.263Z,11.93
2018-12-14T04:13:57.786Z,10.93
2018-12-14T04:16:25.485Z,12.17
2018-12-14T04:18:53.021Z,12.43
2018-12-14T04:21:20.607Z,12.63
2018-12-14T04:23:48.130Z,10.70
2018-12-14T04:26:15.712Z,11.67
2018-12-14T04:28:43.830Z,11.47
2018-12-14T04:31:11.373Z,12.23
2018-12-14T04:33:39.235Z,11.57
2018-12-14T04:36:06.750Z,11.00
2018-12-14T04:38:34.297Z,11.20
2018-12-14T04:41:01.873Z,10.93
2018-12-14T04:43:29.426Z,11.73
2018-12-14T04:45:57.775Z,12.07
2018-12-14T04:48:25.315Z,11.57
2018-12-14T04:50:52.849Z,11.80
2018-12-14T04:53:20.419Z,11.80
2018-12-14T04:55:47.994Z,11.67
2018-12-14T04:58:15.666Z,11.50
2018-12-14T05:00:43.219Z,11.70
2018-12-14T05:03:10.843Z,10.20
2018-12-14T05:05:38.428Z,11.87
2018-12-14T05:08:05.995Z,12.17
2018-12-14T05:10:33.562Z,10.27
2018-12-14T05:13:01.121Z,11.60
2018-12-14T05:15:28.772Z,12.37
2018-12-14T05:17:56.418Z,10.73
2018-12-14T05:20:24.050Z,10.73
2018-12-14T05:22:51.613Z,10.97
2018-12-14T05:25:19.200Z,11.07
2018-12-14T05:27:46.775Z,10.80
2018-12-14T05:30:15.049Z,11.23
2018-12-14T05:32:42.736Z,12.37
2018-12-14T05:35:10.314Z,11.20
2018-12-14T05:37:37.866Z,10.47
2018-12-14T05:40:05.500Z,11.00
2018-12-14T05:42:33.362Z,11.37
2018-12-14T05:45:00.919Z,11.37
2018-12-14T05:47:28.497Z,11.03
2018-12-14T05:49:56.313Z,10.70
2018-12-14T05:52:23.969Z,10.80
2018-12-14T05:54:51.508Z,11.87
2018-12-14T05:57:19.068Z,11.50
2018-12-14T05:59:46.614Z,10.70
2018-12-14T06:02:14.209Z,10.93
2018-12-14T06:04:41.743Z,10.93
2018-12-14T06:07:09.384Z,9.80
2018-12-14T06:09:37.774Z,10.53
2018-12-14T06:12:05.617Z,10.53
2018-12-14T06:14:33.190Z,10.70
2018-12-14T06:17:00.737Z,11.50
2018-12-14T06:19:28.410Z,12.33
2018-12-14T06:21:55.952Z,10.60
2018-12-14T06:24:23.484Z,10.97
2018-12-14T06:26:51.140Z,10.10
2018-12-14T06:29:18.676Z,10.53
2018-12-14T06:31:46.209Z,11.33
2018-12-14T06:34:13.856Z,10.50
2018-12-14T06:36:41.410Z,10.10
2018-12-14T06:39:08.993Z,10.30
2018-12-14T06:41:36.928Z,11.17
2018-12-14T06:44:04.497Z,10.97
2018-12-14T06:46:32.090Z,10.83
2018-12-14T06:48:59.854Z,10.47
2018-12-14T06:51:27.617Z,12.03
2018-12-14T06:53:55.170Z,9.63
2018-12-14T06:56:22.913Z,10.87
2018-12-14T06:58:50.477Z,11.17
2018-12-14T07:01:17.998Z,11.37
2018-12-14T07:03:46.033Z,10.80
2018-12-14T07:06:14.210Z,10.60
2018-12-14T07:08:42.247Z,12.13
2018-12-14T07:11:10.793Z,10.23
2018-12-14T07:13:38.632Z,9.43
2018-12-14T07:16:06.198Z,10.57
2018-12-14T07:18:33.835Z,11.03
2018-12-14T07:21:01.647Z,10.90
2018-12-14T07:23:29.866Z,9.90
2018-12-14T07:25:57.434Z,10.73
2018-12-14T07:28:24.997Z,9.77
2018-12-14T07:30:53.153Z,9.37
2018-12-14T07:33:20.734Z,10.07
2018-12-14T07:35:48.316Z,10.87
2018-12-14T07:38:15.976Z,11.03
2018-12-14T07:40:44.274Z,10.40
2018-12-14T07:43:11.898Z,10.90
2018-12-14T07:45:39.449Z,10.47
2018-12-14T07:48:06.959Z,10.20
2018-12-14T07:50:34.538Z,11.17
2018-12-14T07:53:02.119Z,11.07
2018-12-14T07:55:30.753Z,10.53
2018-12-14T07:57:59.759Z,11.50
2018-12-14T08:00:27.436Z,11.37
2018-12-14T08:02:55.209Z,11.83
2018-12-14T08:05:22.783Z,11.90
2018-12-14T08:07:50.337Z,11.97
2018-12-14T08:10:18.206Z,10.70
2018-12-14T08:12:45.839Z,11.43
2018-12-14T08:15:13.367Z,11.43
2018-12-14T08:17:41.221Z,11.67
2018-12-14T08:20:09.578Z,13.93
2018-12-14T08:22:37.185Z,11.30
2018-12-14T08:25:05.864Z,10.97
2018-12-14T08:27:33.406Z,11.70
2018-12-14T08:30:00.990Z,11.70
2018-12-14T08:32:28.554Z,10.70
2018-12-14T08:34:56.214Z,11.80
2018-12-14T08:37:23.796Z,11.10
2018-12-14T08:39:51.465Z,12.23
2018-12-14T08:42:18.996Z,12.37
2018-12-14T08:44:47.015Z,12.17
2018-12-14T08:47:14.737Z,11.67
2018-12-14T08:49:42.461Z,11.47
2018-12-14T08:52:10.186Z,10.87
2018-12-14T08:54:37.750Z,11.07
2018-12-14T08:57:05.364Z,12.33
2018-12-14T08:59:33.502Z,11.40
2018-12-14T09:02:01.794Z,11.73
2018-12-14T09:04:29.320Z,11.57
2018-12-14T09:06:56.857Z,11.73
2018-12-14T09:09:24.586Z,11.80
2018-12-14T09:11:52.303Z,11.57
2018-12-14T09:14:19.861Z,11.00
2018-12-14T09:16:47.489Z,10.97
2018-12-14T09:19:15.539Z,10.17
2018-12-14T09:21:43.138Z,10.10
2018-12-14T09:24:10.959Z,10.83
2018-12-14T09:26:38.548Z,11.90
2018-12-14T09:29:06.472Z,11.67
2018-12-14T09:31:34.542Z,10.13
2018-12-14T09:34:03.271Z,10.63
2018-12-14T09:36:30.858Z,11.17
2018-12-14T09:38:58.453Z,10.60
2018-12-14T09:41:26.333Z,10.77
2018-12-14T09:43:54.590Z,11.07
2018-12-14T09:46:22.555Z,11.47
2018-12-14T09:48:50.931Z,11.10
2018-12-14T09:51:18.544Z,11.17
2018-12-14T09:53:46.140Z,10.33
2018-12-14T09:56:13.732Z,10.43
2018-12-14T09:58:41.278Z,11.47
2018-12-14T10:01:08.883Z,10.70
2018-12-14T10:03:36.793Z,9.90
2018-12-14T10:06:04.355Z,10.10
2018-12-14T10:08:31.880Z,11.23
2018-12-14T10:10:59.912Z,11.23
2018-12-14T10:13:29.611Z,11.70
2018-12-14T10:15:57.998Z,11.13
2018-12-14T10:18:25.729Z,10.57
2018-12-14T10:20:53.586Z,10.27
2018-12-14T10:23:21.910Z,11.53
2018-12-14T10:25:50.586Z,11.63
2018-12-14T10:28:18.245Z,11.07
2018-12-14T10:30:45.805Z,9.83
2018-12-14T10:33:13.391Z,10.17
2018-12-14T10:35:40.947Z,10.40
2018-12-14T10:38:09.207Z,11.10
2018-12-14T10:40:38.413Z,11.43
2018-12-14T10:43:06.925Z,10.73
2018-12-14T10:45:34.672Z,11.07
2018-12-14T10:48:04.070Z,10.50
2018-12-14T10:50:38.774Z,10.53
2018-12-14T10:53:04.671Z,11.57
2018-12-14T10:55:32.568Z,10.70
2018-12-14T10:58:01.102Z,11.30
2018-12-14T11:00:35.026Z,10.87
2018-12-14T11:03:02.708Z,10.83
2018-12-14T11:05:30.373Z,11.67
2018-12-14T11:07:58.058Z,12.20
2018-12-14T11:10:25.585Z,11.97
2018-12-14T11:12:53.825Z,11.63
2018-12-14T11:15:21.455Z,13.37
2018-12-14T11:17:49.849Z,12.47
2018-12-14T11:20:17.735Z,14.07
2018-12-14T11:22:46.112Z,12.80
2018-12-14T11:25:13.636Z,10.70
2018-12-14T11:27:41.158Z,11.20
2018-12-14T11:30:09.439Z,12.17
2018-12-14T11:32:37.170Z,12.37
2018-12-14T11:35:06.442Z,12.23
2018-12-14T11:37:34.189Z,14.20
2018-12-14T11:40:01.762Z,12.67
2018-12-14T11:42:29.392Z,13.13
2018-12-14T11:44:57.189Z,12.47
2018-12-14T11:47:24.969Z,11.63
2018-12-14T11:49:52.691Z,11.90
2018-12-14T11:52:21.705Z,12.07
2018-12-14T11:54:49.986Z,12.33
2018-12-14T11:57:17.829Z,12.40
2018-12-14T11:59:45.369Z,12.37
2018-12-14T12:02:12.977Z,11.47
2018-12-14T12:04:41.045Z,10.90
2018-12-14T12:07:09.684Z,11.60
2018-12-14T12:09:37.278Z,12.03
2018-12-14T12:12:04.812Z,12.10
2018-12-14T12:14:32.425Z,12.10
2018-12-14T12:17:00.079Z,12.50
2018-12-14T12:19:27.682Z,11.67
2018-12-14T12:21:55.222Z,12.00
2018-12-14T12:24:23.297Z,11.37
2018-12-14T12:26:51.038Z,11.23
2018-12-14T12:29:18.774Z,11.10
2018-12-14T12:31:46.359Z,11.03
2018-12-14T12:34:14.322Z,11.07
2018-12-14T12:36:41.892Z,11.40
2018-12-14T12:39:10.358Z,12.03
2018-12-14T12:41:38.308Z,11.17
2018-12-14T12:44:05.869Z,12.30
2018-12-14T12:46:33.447Z,11.50
2018-12-14T12:49:02.506Z,12.70
2018-12-14T12:51:30.969Z,12.43
2018-12-14T12:53:59.294Z,12.90
2018-12-14T12:56:27.364Z,12.13
2018-12-14T12:58:55.055Z,11.63
2018-12-14T13:01:22.589Z,11.53
2018-12-14T13:03:50.283Z,12.43
2018-12-14T13:06:18.044Z,12.03
2018-12-14T13:08:45.615Z,12.47
2018-12-14T13:11:13.143Z,11.57
2018-12-14T13:13:40.769Z,12.23
2018-12-14T13:16:09.900Z,11.97
2018-12-14T13:18:37.544Z,12.67
2018-12-14T13:21:05.085Z,12.83
2018-12-14T13:23:32.972Z,11.60
2018-12-14T13:26:00.550Z,11.47
2018-12-14T13:28:28.105Z,10.90
2018-12-14T13:30:55.718Z,11.00
2018-12-14T13:33:23.258Z,10.97
2018-12-14T13:35:51.330Z,10.57
2018-12-14T13:38:19.481Z,11.10
2018-12-14T13:40:47.031Z,10.50
2018-12-14T13:43:14.565Z,13.07
2018-12-14T13:45:42.151Z,10.83
2018-12-14T13:48:09.935Z,11.23
2018-12-14T13:50:37.506Z,11.50
2018-12-14T13:53:05.042Z,10.97
2018-12-14T13:55:32.660Z,11.83
2018-12-14T13:58:00.291Z,11.93
2018-12-14T14:00:28.579Z,11.63
2018-12-14T14:02:56.119Z,12.47
2018-12-14T14:05:23.651Z,12.20
2018-12-14T14:07:51.192Z,12.10
2018-12-14T14:10:19.511Z,11.77
2018-12-14T14:12:47.092Z,11.70
2018-12-14T14:15:20.811Z,11.83
2018-12-14T14:17:45.768Z,10.63
2018-12-14T14:20:13.397Z,12.27
2018-12-14T14:22:41.344Z,12.47
2018-12-14T14:25:08.861Z,11.67
2018-12-14T14:27:36.417Z,12.83
2018-12-14T14:30:05.702Z,11.90
2018-12-14T14:32:33.381Z,11.70
2018-12-14T14:35:01.261Z,12.93
2018-12-14T14:37:28.796Z,11.40
2018-12-14T14:39:56.389Z,11.57
2018-12-14T14:42:23.945Z,11.47
2018-12-14T14:44:51.468Z,11.37
2018-12-14T14:47:19.033Z,12.83
2018-12-14T14:49:46.701Z,11.87
2018-12-14T14:52:14.258Z,10.27
2018-12-14T14:54:41.914Z,9.97
2018-12-14T14:57:09.869Z,10.37
2018-12-14T14:59:37.420Z,10.53
2018-12-14T15:02:05.010Z,10.23
2018-12-14T15:04:32.541Z,10.07
2018-12-14T15:07:00.056Z,10.13
2018-12-14T15:09:27.617Z,10.93
2018-12-14T15:11:55.122Z,11.00
2018-12-14T15:14:22.665Z,9.87
2018-12-14T15:16:50.253Z,11.03
2018-12-14T15:19:18.808Z,10.10
2018-12-14T15:21:46.428Z,10.60
2018-12-14T15:24:14.821Z,10.00
2018-12-14T15:26:42.417Z,10.30
2018-12-14T15:29:10.020Z,10.97
2018-12-14T15:31:37.659Z,10.47
2018-12-14T15:34:05.234Z,10.40
2018-12-14T15:36:33.735Z,10.73
2018-12-14T15:39:01.391Z,10.40
2018-12-14T15:41:29.065Z,11.07
2018-12-14T15:43:56.796Z,10.93
2018-12-14T15:46:24.330Z,10.40
2018-12-14T15:48:51.993Z,10.53
2018-12-14T15:51:19.578Z,11.13
2018-12-14T15:53:48.979Z,11.03
2018-12-14T15:56:16.720Z,11.07
2018-12-14T15:58:44.375Z,12.23
2018-12-14T16:01:12.047Z,11.57
2018-12-14T16:03:40.530Z,12.30
2018-12-14T16:06:08.193Z,11.33
2018-12-14T16:08:36.670Z,12.40
2018-12-14T16:11:04.582Z,11.93
2018-12-14T16:13:32.299Z,11.60
2018-12-14T16:15:59.903Z,12.37
2018-12-14T16:18:27.468Z,11.53
2018-12-14T16:20:55.023Z,10.90
2018-12-14T16:23:22.599Z,12.17
2018-12-14T16:25:50.162Z,12.13
2018-12-14T16:28:18.097Z,11.50
2018-12-14T16:30:45.870Z,11.97
2018-12-14T16:33:13.424Z,11.47
2018-12-14T16:35:41.545Z,11.27
2018-12-14T16:38:09.181Z,10.43
2018-12-14T16:40:36.768Z,10.60
2018-12-14T16:43:04.682Z,11.83
2018-12-14T16:45:32.242Z,11.13
2018-12-14T16:47:59.891Z,11.43
2018-12-14T16:50:27.465Z,11.40
2018-12-14T16:52:55.113Z,11.30
2018-12-14T16:55:22.715Z,11.10
2018-12-14T16:57:50.572Z,11.00
2018-12-14T17:00:18.241Z,11.40
2018-12-14T17:02:45.811Z,11.47
2018-12-14T17:05:14.046Z,12.03
2018-12-14T17:07:41.622Z,11.97
2018-12-14T17:10:09.239Z,11.00
2018-12-14T17:12:36.904Z,11.23
2018-12-14T17:15:06.394Z,11.43
2018-12-14T17:17:34.208Z,11.67
2018-12-14T17:20:02.078Z,11.70
2018-12-14T17:22:30.597Z,11.53
2018-12-14T17:24:58.294Z,11.33
2018-12-14T17:27:26.066Z,12.73
2018-12-14T17:29:53.666Z,10.70
2018-12-14T17:32:21.638Z,10.97
2018-12-14T17:34:49.251Z,10.40
2018-12-14T17:37:16.813Z,11.13
2018-12-14T17:39:44.438Z,10.27
2018-12-14T17:42:12.033Z,10.33
2018-12-14T17:44:40.069Z,11.07
2018-12-14T17:47:07.857Z,10.33
2018-12-14T17:49:35.764Z,11.03
2018-12-14T17:52:03.415Z,10.47
2018-12-14T17:54:30.991Z,10.93
2018-12-14T17:56:58.566Z,10.87
2018-12-14T17:59:26.183Z,11.23
2018-12-14T18:01:53.697Z,12.27
2018-12-14T18:04:21.258Z,11.33
2018-12-14T18:06:48.846Z,11.43
2018-12-14T18:09:16.456Z,11.77
2018-12-14T18:11:44.963Z,10.87
2018-12-14T18:14:12.498Z,11.90
2018-12-14T18:16:40.574Z,10.37
2018-12-14T18:19:08.434Z,10.70
2018-12-14T18:21:37.047Z,12.03
2018-12-14T18:24:06.176Z,9.83
2018-12-14T18:26:33.736Z,9.80
2018-12-14T18:29:02.220Z,10.67
2018-12-14T18:31:29.745Z,11.87
2018-12-14T18:33:57.934Z,11.40
2018-12-14T18:36:25.543Z,10.70
2018-12-14T18:38:53.089Z,10.67
2018-12-14T18:41:20.770Z,10.67
2018-12-14T18:43:48.364Z,10.97
2018-12-14T18:46:15.881Z,12.33
2018-12-14T18:48:43.438Z,11.43
2018-12-14T18:51:11.020Z,11.57
2018-12-14T18:53:38.566Z,10.50
2018-12-14T18:56:06.114Z,11.10
2018-12-14T18:58:33.893Z,9.47
2018-12-14T19:01:02.227Z,10.33
2018-12-14T19:03:30.359Z,9.67
2018-12-14T19:05:57.934Z,10.00
2018-12-14T19:08:25.777Z,8.60
2018-12-14T19:10:53.308Z,10.13
2018-12-14T19:13:21.024Z,10.77
2018-12-14T19:15:48.593Z,9.97
2018-12-14T19:18:16.186Z,9.87
2018-12-14T19:20:43.767Z,10.37
2018-12-14T19:23:11.362Z,9.73
2018-12-14T19:25:38.937Z,10.17
2018-12-14T19:28:06.496Z,10.17
2018-12-14T19:30:34.042Z,10.90
2018-12-14T19:33:01.860Z,12.20
2018-12-14T19:35:29.398Z,10.20
2018-12-14T19:37:56.996Z,11.23
2018-12-14T19:40:24.852Z,12.10
2018-12-14T19:42:52.402Z,10.17
2018-12-14T19:45:19.970Z,10.70
2018-12-14T19:47:47.565Z,10.43
2018-12-14T19:50:15.120Z,8.77
2018-12-14T19:52:43.332Z,9.13
2018-12-14T19:55:10.926Z,9.50
2018-12-14T19:57:39.157Z,10.60
2018-12-14T20:00:10.529Z,10.37
2018-12-14T20:02:38.573Z,9.20
2018-12-14T20:05:08.026Z,9.33
2018-12-14T20:07:36.425Z,8.87
2018-12-14T20:10:05.587Z,10.57
2018-12-14T20:12:33.177Z,11.63
2018-12-14T20:15:01.729Z,10.07
2018-12-14T20:17:29.289Z,11.90
2018-12-14T20:19:56.833Z,11.43
2018-12-14T20:22:24.463Z,11.23
2018-12-14T20:24:51.991Z,10.50
2018-12-14T20:27:19.574Z,10.37
2018-12-14T20:29:47.209Z,10.17
2018-12-14T20:32:14.751Z,10.70
2018-12-14T20:34:42.314Z,10.13
2018-12-14T20:37:09.868Z,10.30
2018-12-14T20:39:37.385Z,10.07
2018-12-14T20:42:05.143Z,9.43
2018-12-14T20:44:32.806Z,9.77
2018-12-14T20:47:00.381Z,9.17
2018-12-14T20:49:27.964Z,9.80
2018-12-14T20:51:55.588Z,9.10
2018-12-14T20:54:23.151Z,10.93
2018-12-14T20:56:51.680Z,9.37
2018-12-14T20:59:19.965Z,8.67
2018-12-14T21:01:47.543Z,9.63
2018-12-14T21:04:15.133Z,10.27
2018-12-14T21:06:42.822Z,9.40
2018-12-14T21:09:10.454Z,10.20
2018-12-14T21:11:37.999Z,9.60
2018-12-14T21:14:05.679Z,11.13
2018-12-14T21:16:33.935Z,10.50
2018-12-14T21:19:01.492Z,10.37
2018-12-14T21:21:29.017Z,10.77
2018-12-14T21:23:56.820Z,11.17
2018-12-14T21:26:24.375Z,9.90
2018-12-14T21:28:51.906Z,10.97
2018-12-14T21:31:19.477Z,12.93
2018-12-14T21:33:47.100Z,11.90
2018-12-14T21:36:14.688Z,10.53
2018-12-14T21:38:42.205Z,9.80
2018-12-14T21:41:09.763Z,9.57
2018-12-14T21:43:37.714Z,10.87
2018-12-14T21:46:05.275Z,10.93
2018-12-14T21:48:32.831Z,11.73
2018-12-14T21:51:00.893Z,12.97
2018-12-14T21:53:28.458Z,11.83
2018-12-14T21:55:55.988Z,12.60
2018-12-14T21:58:23.546Z,11.10
2018-12-14T22:00:51.070Z,10.73
2018-12-14T22:03:19.013Z,11.20
2018-12-14T22:05:46.772Z,10.90
2018-12-14T22:08:14.329Z,10.83
2018-12-14T22:10:42.066Z,10.07
2018-12-14T22:13:09.631Z,9.57
2018-12-14T22:15:37.546Z,10.20
2018-12-14T22:18:05.304Z,10.37
2018-12-14T22:20:33.693Z,9.77
2018-12-14T22:23:01.776Z,10.20
2018-12-14T22:25:29.340Z,10.27
2018-12-14T22:27:56.879Z,9.87
2018-12-14T22:30:24.958Z,11.27
2018-12-14T22:32:52.590Z,11.47
2018-12-14T22:35:20.177Z,10.77
2018-12-14T22:37:47.715Z,10.07
2018-12-14T22:40:15.247Z,11.07
2018-12-14T22:42:42.906Z,10.67
2018-12-14T22:45:10.512Z,10.70
2018-12-14T22:47:38.085Z,9.80
2018-12-14T22:50:05.845Z,9.07
2018-12-14T22:52:33.401Z,10.53
2018-12-14T22:55:00.957Z,10.30
2018-12-14T22:57:28.551Z,9.83
2018-12-14T22:59:56.121Z,9.13
2018-12-14T23:02:23.694Z,10.40
2018-12-14T23:04:51.208Z,9.77
2018-12-14T23:07:18.720Z,10.73
2018-12-14T23:09:46.273Z,9.30
2018-12-14T23:12:13.846Z,9.57
2018-12-14T23:14:41.428Z,9.50
2018-12-14T23:17:08.991Z,9.97
2018-12-14T23:19:36.637Z,10.73
2018-12-14T23:22:04.179Z,9.97
2018-12-14T23:24:31.738Z,9.73
2018-12-14T23:26:59.257Z,10.23
2018-12-14T23:29:26.825Z,10.53
2018-12-14T23:31:54.410Z,9.90
2018-12-14T23:34:21.978Z,10.57
2018-12-14T23:36:49.489Z,10.37
2018-12-14T23:39:17.053Z,10.07
2018-12-14T23:41:44.593Z,10.47
2018-12-14T23:44:12.155Z,10.63
2018-12-14T23:46:39.679Z,9.97
2018-12-14T23:49:07.228Z,9.87
2018-12-14T23:51:34.794Z,11.47
2018-12-14T23:54:02.331Z,10.63
2018-12-14T23:56:29.878Z,9.47
2018-12-14T23:58:57.410Z,10.03
